Time;durP1;ratioP1;P1;durP2;ratioP2;P2;SDS_P1;SDS_P2;PMS_P1;PMS_P2;Temp;Humidity;BMP_temperature;BMP_pressure;BME280_temperature;BME280_humidity;BME280_pressure;Samples;Min_cycle;Max_cycle;Signal;HPM_P1;HPM_P2
2023/01/12 00:01:59;;;;;;;0.63;0.50;;;;;;;22.75;33.45;99454.72;5037099;28;20103;-66
2023/01/12 00:04:25;;;;;;;0.60;0.40;;;;;;;22.79;33.04;99447.59;5040247;28;20111;-67
2023/01/12 00:06:50;;;;;;;0.40;0.40;;;;;;;22.69;32.99;99435.72;5037562;28;20021;-68
2023/01/12 00:09:16;;;;;;;0.70;0.43;;;;;;;22.78;32.88;99449.50;5035989;28;20438;-67
2023/01/12 00:11:42;;;;;;;0.50;0.50;;;;;;;22.79;33.21;99451.13;5038981;28;20035;-67
2023/01/12 00:14:08;;;;;;;0.50;0.47;;;;;;;22.74;32.94;99436.78;5037634;28;20083;-67
2023/01/12 00:16:33;;;;;;;0.40;0.40;;;;;;;22.86;33.48;99445.34;5036864;28;20029;-68
2023/01/12 00:19:20;;;;;;;0.70;0.50;;;;;;;22.96;32.89;99438.94;5034614;28;20388;-68
2023/01/12 00:21:49;;;;;;;0.45;0.45;;;;;;;22.90;32.76;99432.72;5040254;28;20067;-67
2023/01/12 00:24:20;;;;;;;0.30;0.30;;;;;;;22.82;32.89;99425.25;5038423;28;20032;-68
2023/01/12 00:26:46;;;;;;;0.40;0.40;;;;;;;22.81;33.33;99423.59;5035960;28;20029;-68
2023/01/12 00:29:12;;;;;;;0.40;0.40;;;;;;;22.86;32.85;99427.06;5038043;28;20509;-69
2023/01/12 00:31:38;;;;;;;0.30;0.30;;;;;;;22.87;33.21;99428.69;5036696;28;20036;-68
2023/01/12 00:34:04;;;;;;;0.40;0.40;;;;;;;22.91;33.16;99426.19;5037053;28;20021;-68
2023/01/12 00:36:29;;;;;;;0.60;0.40;;;;;;;22.94;33.31;99427.50;5038736;28;20029;-68
2023/01/12 00:38:55;;;;;;;0.30;0.30;;;;;;;22.89;32.90;99420.25;5034294;28;20025;-67
2023/01/12 00:46:49;;;;;;;0.40;0.40;;;;;;;22.98;32.98;99426.63;5032458;28;20455;-67
2023/01/12 00:49:14;;;;;;;0.40;0.40;;;;;;;23.02;33.27;99429.59;5032678;28;20055;-67
2023/01/12 00:51:40;;;;;;;0.45;0.45;;;;;;;23.10;33.13;99417.25;5038784;28;20212;-69
2023/01/12 00:54:07;;;;;;;0.52;0.40;;;;;;;23.02;32.62;99427.66;5036874;28;20048;-67
2023/01/12 00:56:36;;;;;;;0.30;0.30;;;;;;;23.01;32.80;99426.06;5037277;28;20020;-67
2023/01/12 00:59:02;;;;;;;0.40;0.40;;;;;;;23.04;32.61;99414.56;5034281;28;20028;-68
2023/01/12 01:01:27;;;;;;;0.50;0.40;;;;;;;23.05;32.77;99413.47;5037385;28;20407;-67
2023/01/12 01:03:56;;;;;;;0.40;0.40;;;;;;;23.06;32.76;99409.66;5036282;28;20341;-67
2023/01/12 01:06:22;;;;;;;0.32;0.32;;;;;;;23.00;32.45;99413.53;5035583;28;20028;-68
2023/01/12 01:08:47;;;;;;;0.30;0.30;;;;;;;23.03;32.79;99407.50;5034330;28;20499;-67
2023/01/12 01:11:13;;;;;;;0.40;0.40;;;;;;;23.14;32.65;99423.72;5033475;28;20040;-69
2023/01/12 01:13:40;;;;;;;0.40;0.40;;;;;;;23.13;32.77;99411.19;5036634;28;20040;-68
2023/01/12 01:16:06;;;;;;;0.40;0.40;;;;;;;23.15;32.87;99412.53;5037694;28;20025;-68
2023/01/12 01:18:32;;;;;;;0.40;0.40;;;;;;;23.14;32.67;99407.38;5034008;28;20108;-69
2023/01/12 01:20:58;;;;;;;0.47;0.47;;;;;;;23.13;32.85;99405.75;5036508;28;20025;-67
2023/01/12 01:23:24;;;;;;;0.40;0.40;;;;;;;23.19;33.19;99404.56;5036398;28;20041;-67
2023/01/12 01:25:50;;;;;;;0.30;0.30;;;;;;;23.22;32.77;99409.44;5035680;28;20029;-68
2023/01/12 01:28:16;;;;;;;0.40;0.40;;;;;;;23.20;32.77;99406.22;5037285;28;20392;-67
2023/01/12 01:30:42;;;;;;;0.30;0.30;;;;;;;23.22;32.87;99399.34;5036099;28;20024;-68
2023/01/12 01:33:08;;;;;;;0.40;0.40;;;;;;;23.22;32.61;99393.09;5034507;28;20017;-68
2023/01/12 01:35:34;;;;;;;0.30;0.30;;;;;;;23.24;32.84;99402.56;5037205;28;20034;-67
2023/01/12 01:38:00;;;;;;;0.30;0.30;;;;;;;23.33;33.19;99396.47;5035131;28;20024;-67
2023/01/12 01:40:26;;;;;;;0.40;0.40;;;;;;;23.28;33.00;99391.88;5035261;28;20434;-67
2023/01/12 01:42:53;;;;;;;0.30;0.30;;;;;;;23.21;32.89;99381.34;5034195;28;20036;-66
2023/01/12 01:45:19;;;;;;;0.30;0.30;;;;;;;23.30;32.71;99392.44;5035997;28;20028;-68
2023/01/12 01:47:48;;;;;;;0.40;0.40;;;;;;;23.28;32.44;99383.72;5036863;28;20037;-67
2023/01/12 01:50:27;;;;;;;0.30;0.30;;;;;;;23.30;32.71;99384.25;5015401;28;20021;-68
2023/01/12 01:52:56;;;;;;;0.40;0.40;;;;;;;23.36;32.34;99377.59;5016465;28;20067;-68
2023/01/12 01:55:24;;;;;;;0.25;0.25;;;;;;;23.38;32.82;99380.81;5035737;28;20034;-67
2023/01/12 01:57:56;;;;;;;0.40;0.40;;;;;;;23.36;32.69;99374.06;5036819;28;20025;-67
2023/01/12 02:00:23;;;;;;;0.30;0.30;;;;;;;23.37;32.67;99368.31;5034934;28;20045;-67
2023/01/12 02:02:49;;;;;;;0.30;0.30;;;;;;;23.38;32.25;99369.91;5034869;28;20025;-67
2023/01/12 02:05:20;;;;;;;0.30;0.30;;;;;;;23.41;32.75;99374.78;5032803;28;21825;-67
2023/01/12 02:07:47;;;;;;;0.40;0.40;;;;;;;23.42;32.82;99367.41;5035946;28;20051;-68
2023/01/12 02:10:12;;;;;;;0.32;0.32;;;;;;;23.41;32.27;99363.88;5034452;28;20037;-68
2023/01/12 02:18:09;;;;;;;0.43;0.43;;;;;;;23.42;32.21;99360.06;5035536;28;20030;-66
2023/01/12 02:21:16;;;;;;;0.30;0.30;;;;;;;23.42;32.45;99360.06;5035151;28;20036;-66
2023/01/12 02:24:23;;;;;;;0.38;0.38;;;;;;;23.46;32.43;99357.53;5035461;28;20033;-67
2023/01/12 02:27:41;;;;;;;0.40;0.40;;;;;;;23.51;32.43;99359.34;5023071;28;20047;-66
2023/01/12 02:30:19;;;;;;;0.30;0.30;;;;;;;23.47;32.29;99348.22;5009679;28;20079;-68
2023/01/12 02:33:40;;;;;;;0.40;0.40;;;;;;;23.47;32.30;99342.78;5031968;28;20119;-66
2023/01/12 02:36:30;;;;;;;0.40;0.40;;;;;;;23.53;32.23;99343.53;4978044;28;20053;-66
2023/01/12 02:39:29;;;;;;;0.40;0.40;;;;;;;23.53;32.27;99352.50;5033456;28;20029;-67
2023/01/12 02:44:55;;;;;;;;;;;;;;;23.62;32.13;99341.72;5032825;28;20097;-67
2023/01/12 02:47:26;;;;;;;0.30;0.30;;;;;;;23.61;32.44;99342.81;5034819;28;20328;-67
2023/01/12 02:49:53;;;;;;;0.30;0.30;;;;;;;23.55;32.48;99338.56;5018678;28;20108;-67
2023/01/12 02:52:18;;;;;;;0.30;0.30;;;;;;;23.62;32.36;99339.00;5032867;28;20439;-66
2023/01/12 02:54:46;;;;;;;0.50;0.50;;;;;;;23.53;32.17;99325.25;5019099;28;20025;-67
2023/01/12 02:57:11;;;;;;;0.30;0.30;;;;;;;23.56;32.23;99334.72;5011495;28;20519;-67
2023/01/12 02:59:41;;;;;;;0.40;0.40;;;;;;;23.61;32.19;99340.91;5033531;28;20025;-67
2023/01/12 03:02:12;;;;;;;0.50;0.50;;;;;;;23.62;32.68;99347.97;5035409;28;20033;-67
2023/01/12 03:04:40;;;;;;;0.40;0.40;;;;;;;23.66;31.93;99340.00;5039874;28;20054;-67
2023/01/12 03:07:28;;;;;;;0.35;0.35;;;;;;;23.60;32.23;99339.28;5019297;28;20230;-67
2023/01/12 03:10:00;;;;;;;0.35;0.35;;;;;;;23.64;32.07;99334.03;5041622;28;20059;-68
2023/01/12 03:12:27;;;;;;;0.40;0.40;;;;;;;23.62;31.86;99328.06;5037066;28;20329;-68
2023/01/12 03:14:53;;;;;;;0.40;0.40;;;;;;;23.62;32.12;99328.06;5036962;28;20048;-68
2023/01/12 03:17:58;;;;;;;0.40;0.40;;;;;;;23.66;31.83;99318.19;5039119;28;20087;-68
2023/01/12 03:20:35;;;;;;;0.50;0.50;;;;;;;23.66;31.97;99331.00;5038837;28;20054;-67
2023/01/12 03:23:26;;;;;;;0.40;0.40;;;;;;;23.63;32.16;99311.41;5036469;28;20475;-67
2023/01/12 03:25:52;;;;;;;0.30;0.30;;;;;;;23.73;32.22;99313.16;5039104;28;20041;-67
2023/01/12 03:28:18;;;;;;;0.40;0.40;;;;;;;23.78;32.12;99317.69;5036502;28;20064;-68
2023/01/12 03:30:49;;;;;;;0.30;0.30;;;;;;;23.72;32.31;99308.81;5036439;28;20060;-68
2023/01/12 03:33:14;;;;;;;0.20;0.20;;;;;;;23.74;32.27;99305.78;5035794;28;20430;-68
2023/01/12 03:35:47;;;;;;;0.57;0.32;;;;;;;23.78;32.46;99306.78;5039632;28;20476;-68
2023/01/12 03:38:45;;;;;;;0.30;0.30;;;;;;;23.78;32.37;99306.78;5022635;28;20033;-67
2023/01/12 03:41:29;;;;;;;0.25;0.25;;;;;;;23.78;32.29;99290.41;5026412;28;20167;-67
2023/01/12 03:43:57;;;;;;;0.50;0.40;;;;;;;23.81;32.30;99290.63;5037352;28;20033;-67
2023/01/12 03:46:33;;;;;;;0.40;0.40;;;;;;;23.80;32.18;99275.38;5020842;28;20276;-67
2023/01/12 03:49:16;;;;;;;0.40;0.40;;;;;;;23.84;31.93;99277.53;5038329;28;20017;-68
2023/01/12 03:51:44;;;;;;;0.63;0.40;;;;;;;23.74;32.00;99267.59;5037860;28;20574;-68
2023/01/12 03:54:10;;;;;;;0.38;0.38;;;;;;;23.81;31.90;99271.53;5021722;28;20458;-67
2023/01/12 03:56:35;;;;;;;0.30;0.30;;;;;;;23.81;31.84;99268.81;5036943;28;20025;-66
2023/01/12 03:59:02;;;;;;;0.30;0.30;;;;;;;23.86;32.36;99272.56;5018126;28;20021;-66
2023/01/12 04:01:28;;;;;;;0.32;0.32;;;;;;;23.88;32.40;99273.88;5038161;28;20029;-67
2023/01/12 04:03:53;;;;;;;0.52;0.35;;;;;;;23.89;32.25;99264.59;5038097;28;20039;-65
2023/01/12 04:06:19;;;;;;;0.40;0.40;;;;;;;23.87;32.14;99271.44;5040589;28;20040;-65
2023/01/12 04:08:44;;;;;;;0.30;0.30;;;;;;;23.90;32.01;99262.66;5038394;28;20123;-66
2023/01/12 04:13:54;;;;;;;0.30;0.30;;;;;;;23.92;32.37;99264.00;5041626;28;20036;-66
2023/01/12 04:16:20;;;;;;;0.40;0.40;;;;;;;23.89;31.67;99266.53;5037813;28;20029;-66
2023/01/12 04:18:46;;;;;;;0.25;0.25;;;;;;;23.91;32.04;99261.56;5037856;28;20103;-66
2023/01/12 04:22:41;;;;;;;0.30;0.30;;;;;;;23.94;32.24;99250.00;5038136;28;20028;-66
2023/01/12 04:23:57;;;;;;;0.30;0.30;;;;;;;23.89;31.78;99244.69;5038233;28;20029;-66
2023/01/12 04:26:23;;;;;;;0.35;0.35;;;;;;;23.98;31.97;99251.84;5039513;28;20102;-66
2023/01/12 04:28:48;;;;;;;0.32;0.32;;;;;;;23.92;31.71;99246.78;5039675;28;20043;-65
2023/01/12 04:31:14;;;;;;;0.30;0.30;;;;;;;23.92;32.06;99241.34;5034297;28;20032;-65
2023/01/12 04:33:41;;;;;;;0.30;0.30;;;;;;;23.93;32.18;99243.75;5037639;28;20398;-65
2023/01/12 04:36:10;;;;;;;0.30;0.30;;;;;;;23.98;32.25;99240.13;5036469;28;20385;-65
2023/01/12 04:38:38;;;;;;;0.30;0.30;;;;;;;23.99;31.90;99244.44;5036736;28;20040;-65
2023/01/12 04:41:07;;;;;;;0.40;0.40;;;;;;;23.99;32.04;99241.72;5035251;28;20066;-66
2023/01/12 04:43:33;;;;;;;0.55;0.30;;;;;;;23.97;32.09;99254.88;5016786;28;20036;-67
2023/01/12 04:46:06;;;;;;;0.30;0.30;;;;;;;24.01;32.48;99250.44;5036527;28;20029;-64
2023/01/12 04:48:32;;;;;;;0.30;0.30;;;;;;;24.07;32.28;99254.66;5038676;28;20032;-65
2023/01/12 04:50:58;;;;;;;0.20;0.20;;;;;;;24.05;31.86;99250.63;5035543;28;20070;-66
2023/01/12 04:53:25;;;;;;;0.28;0.28;;;;;;;24.03;32.20;99236.50;5034186;28;20915;-66
2023/01/12 04:55:50;;;;;;;0.40;0.40;;;;;;;24.07;31.88;99232.81;5037178;28;20037;-65
2023/01/12 04:58:16;;;;;;;0.30;0.30;;;;;;;24.06;31.80;99223.03;5036188;28;20111;-65
2023/01/12 05:00:42;;;;;;;0.40;0.40;;;;;;;24.10;31.66;99234.16;5036382;28;20036;-68
2023/01/12 05:03:12;;;;;;;0.30;0.30;;;;;;;24.05;31.72;99229.59;5034510;28;20403;-67
2023/01/12 05:05:37;;;;;;;0.30;0.30;;;;;;;24.05;31.85;99229.59;5037433;28;20024;-68
2023/01/12 05:10:58;;;;;;;0.55;0.40;;;;;;;24.09;32.12;99230.59;5037704;28;20036;-66
2023/01/12 05:13:25;;;;;;;0.30;0.30;;;;;;;24.10;31.69;99236.88;5036036;28;20510;-66
2023/01/12 05:15:50;;;;;;;0.30;0.30;;;;;;;24.11;32.13;99228.38;5038955;28;20025;-68
2023/01/12 05:18:16;;;;;;;0.40;0.30;;;;;;;24.10;32.19;99232.22;5036029;28;20078;-67
2023/01/12 05:20:41;;;;;;;0.30;0.30;;;;;;;24.12;32.19;99235.44;5035489;28;20038;-67
2023/01/12 05:23:07;;;;;;;0.30;0.30;;;;;;;24.14;31.42;99233.22;5034136;28;20502;-67
2023/01/12 05:25:33;;;;;;;0.30;0.30;;;;;;;24.16;32.28;99236.47;5037380;28;20251;-66
2023/01/12 05:27:58;;;;;;;0.40;0.30;;;;;;;24.18;31.92;99238.88;5035321;28;20379;-67
2023/01/12 05:30:27;;;;;;;0.40;0.40;;;;;;;24.17;32.21;99231.81;5036679;28;20086;-67
2023/01/12 05:32:54;;;;;;;0.40;0.40;;;;;;;24.22;32.26;99228.97;5032049;28;20050;-67
2023/01/12 05:35:20;;;;;;;0.30;0.30;;;;;;;24.14;31.60;99222.28;5033689;28;20025;-66
2023/01/12 05:37:45;;;;;;;0.30;0.30;;;;;;;24.24;31.85;99239.59;5033119;28;20021;-68
2023/01/12 05:40:11;;;;;;;0.30;0.30;;;;;;;24.24;31.84;99223.22;5036611;28;20122;-68
2023/01/12 05:45:21;;;;;;;0.30;0.30;;;;;;;24.25;31.94;99217.44;5037145;28;20514;-66
2023/01/12 05:47:54;;;;;;;0.30;0.30;;;;;;;24.32;31.81;99223.28;5035686;28;20275;-67
2023/01/12 05:50:20;;;;;;;0.30;0.30;;;;;;;24.30;31.77;99220.06;5032417;28;20036;-67
2023/01/12 05:52:46;;;;;;;0.20;0.20;;;;;;;24.29;32.22;99221.16;5032213;28;20021;-65
2023/01/12 05:55:11;;;;;;;0.40;0.40;;;;;;;24.32;31.80;99227.94;5031421;28;20472;-67
2023/01/12 05:57:37;;;;;;;0.38;0.30;;;;;;;24.28;31.49;99226.94;5035645;28;20025;-65
2023/01/12 06:00:03;;;;;;;0.25;0.25;;;;;;;24.30;31.44;99225.53;5035254;28;20027;-65
2023/01/12 06:02:29;;;;;;;0.25;0.25;;;;;;;24.27;31.34;99226.13;5033687;28;20021;-65
2023/01/12 06:04:55;;;;;;;0.20;0.20;;;;;;;24.29;31.72;99226.63;5036658;28;20108;-66
2023/01/12 06:07:20;;;;;;;0.20;0.20;;;;;;;24.24;31.84;99220.47;5036811;28;20016;-65
2023/01/12 06:09:46;;;;;;;0.28;0.28;;;;;;;24.35;31.42;99219.13;5039556;28;20021;-67
2023/01/12 06:14:56;;;;;;;0.30;0.30;;;;;;;24.36;31.53;99215.28;5036263;28;20518;-66
2023/01/12 06:17:21;;;;;;;0.20;0.20;;;;;;;24.36;31.52;99207.09;5018236;28;20068;-65
2023/01/12 06:19:47;;;;;;;0.25;0.25;;;;;;;24.42;31.60;99202.31;5037209;28;20021;-65
2023/01/12 06:22:12;;;;;;;0.28;0.28;;;;;;;24.36;31.96;99209.81;5038963;28;20365;-65
2023/01/12 06:24:38;;;;;;;0.25;0.25;;;;;;;24.35;31.74;99203.56;5037366;28;20629;-65
2023/01/12 06:27:04;;;;;;;0.30;0.30;;;;;;;24.35;31.15;99205.47;5035052;28;20075;-66
2023/01/12 06:29:29;;;;;;;0.47;0.47;;;;;;;24.37;31.26;99197.78;5037370;28;20406;-66
2023/01/12 06:31:55;;;;;;;0.28;0.28;;;;;;;24.41;31.93;99198.78;5036906;28;20043;-66
2023/01/12 06:34:21;;;;;;;0.20;0.20;;;;;;;24.34;31.43;99201.13;5036993;28;20033;-65
2023/01/12 06:36:48;;;;;;;0.20;0.20;;;;;;;24.41;31.72;99204.25;5036065;28;20025;-65
2023/01/12 06:39:13;;;;;;;0.38;0.30;;;;;;;24.43;31.83;99196.53;5036182;28;20388;-65
2023/01/12 06:44:23;;;;;;;0.30;0.30;;;;;;;24.38;31.46;99186.53;5034273;28;20063;-66
2023/01/12 06:46:49;;;;;;;0.40;0.40;;;;;;;24.42;31.70;99194.13;5035884;28;20029;-65
2023/01/12 06:49:18;;;;;;;0.45;0.20;;;;;;;24.48;32.08;99192.91;5035444;28;20025;-66
2023/01/12 06:51:46;;;;;;;0.20;0.20;;;;;;;24.44;31.55;99206.38;5036690;28;20147;-65
2023/01/12 06:54:12;;;;;;;0.30;0.30;;;;;;;24.49;31.55;99191.75;5037972;28;20025;-66
2023/01/12 06:56:38;;;;;;;0.30;0.30;;;;;;;24.40;31.54;99202.63;5036389;28;20420;-64
2023/01/12 06:59:03;;;;;;;0.20;0.20;;;;;;;24.48;32.16;99199.16;5034608;28;20403;-65
2023/01/12 07:01:29;;;;;;;0.30;0.30;;;;;;;24.48;31.89;99196.41;5036457;28;20736;-65
2023/01/12 07:03:54;;;;;;;0.20;0.20;;;;;;;24.54;31.72;99199.88;5037924;28;20089;-68
2023/01/12 07:06:20;;;;;;;0.20;0.20;;;;;;;24.49;32.15;99206.25;5034741;28;20064;-67
2023/01/12 07:08:46;;;;;;;0.20;0.20;;;;;;;24.57;31.67;99196.53;5016883;28;20036;-67
2023/01/12 07:11:13;;;;;;;0.30;0.30;;;;;;;24.51;31.49;99189.56;5017004;28;20035;-66
2023/01/12 07:13:39;;;;;;;0.28;0.28;;;;;;;24.56;31.50;99194.94;5013917;28;20063;-66
2023/01/12 07:16:05;;;;;;;0.30;0.30;;;;;;;24.57;31.67;99193.00;5026026;28;20385;-66
2023/01/12 07:18:31;;;;;;;0.20;0.20;;;;;;;24.58;31.85;99189.94;5026042;28;20017;-67
2023/01/12 07:20:56;;;;;;;0.20;0.20;;;;;;;24.58;31.60;99192.69;5037447;28;20175;-66
2023/01/12 07:23:22;;;;;;;0.30;0.30;;;;;;;24.60;31.81;99195.91;5035327;28;20048;-67
2023/01/12 07:25:48;;;;;;;0.77;0.30;;;;;;;24.63;31.84;99194.47;5035673;28;20099;-66
2023/01/12 07:28:13;;;;;;;0.20;0.20;;;;;;;24.60;31.55;99195.91;5037909;28;20128;-66
2023/01/12 07:30:39;;;;;;;0.30;0.30;;;;;;;24.59;31.58;99201.69;5035205;28;20047;-67
2023/01/12 07:33:06;;;;;;;0.20;0.20;;;;;;;24.58;31.69;99202.78;5034743;28;20384;-66
2023/01/12 07:35:32;;;;;;;0.20;0.20;;;;;;;24.67;31.80;99200.94;5036433;28;20025;-66
2023/01/12 07:37:57;;;;;;;0.30;0.30;;;;;;;24.67;31.90;99196.28;5036214;28;20056;-66
2023/01/12 07:40:23;;;;;;;0.30;0.30;;;;;;;24.68;31.69;99208.81;5036781;28;20096;-67
2023/01/12 07:42:57;;;;;;;0.20;0.20;;;;;;;24.70;31.01;99208.53;5033615;28;20060;-65
2023/01/12 07:45:23;;;;;;;0.25;0.25;;;;;;;24.67;31.61;99200.94;5036824;28;20036;-65
2023/01/12 07:47:53;;;;;;;0.20;0.20;;;;;;;24.64;31.98;99207.03;5039492;28;20036;-66
2023/01/12 07:50:19;;;;;;;0.30;0.30;;;;;;;24.65;31.46;99194.97;5039352;28;20028;-65
2023/01/12 07:52:45;;;;;;;0.30;0.30;;;;;;;24.65;31.35;99198.50;5040526;28;20060;-65
2023/01/12 07:55:10;;;;;;;0.43;0.30;;;;;;;24.71;31.61;99201.91;5039731;28;20131;-64
2023/01/12 07:57:36;;;;;;;0.25;0.20;;;;;;;24.69;31.49;99204.16;5041112;28;20048;-64
2023/01/12 08:00:04;;;;;;;0.30;0.30;;;;;;;24.70;32.12;99208.53;5041886;28;20070;-65
2023/01/12 08:02:30;;;;;;;0.20;0.20;;;;;;;24.75;31.64;99200.19;5038890;28;20079;-64
2023/01/12 08:04:55;;;;;;;0.20;0.20;;;;;;;24.79;31.98;99194.91;5037803;28;20104;-65
2023/01/12 08:07:21;;;;;;;0.25;0.25;;;;;;;24.76;31.14;99196.34;5035982;28;20457;-64
2023/01/12 08:09:47;;;;;;;0.38;0.30;;;;;;;24.81;31.81;99211.81;5039364;28;20486;-65
2023/01/12 08:12:12;;;;;;;0.30;0.30;;;;;;;24.82;31.26;99203.28;5040096;28;20062;-64
2023/01/12 08:14:39;;;;;;;0.25;0.25;;;;;;;24.75;31.02;99197.47;5039329;28;20119;-64
2023/01/12 08:17:07;;;;;;;0.30;0.30;;;;;;;24.78;31.48;99213.22;5038090;28;20147;-65
2023/01/12 08:19:37;;;;;;;0.20;0.20;;;;;;;24.77;31.54;99211.63;5040467;28;20029;-65
2023/01/12 08:22:04;;;;;;;0.43;0.40;;;;;;;24.82;31.19;99197.00;5039133;28;20060;-64
2023/01/12 08:24:42;;;;;;;0.20;0.20;;;;;;;24.77;31.26;99195.22;5035277;28;20032;-65
2023/01/12 08:27:08;;;;;;;0.20;0.20;;;;;;;24.80;31.66;99205.53;5034582;28;20400;-65
2023/01/12 08:29:44;;;;;;;0.25;0.25;;;;;;;24.82;31.56;99203.28;5035498;28;20120;-66
2023/01/12 08:32:11;;;;;;;0.30;0.30;;;;;;;24.77;31.14;99205.31;5037083;28;20021;-67
2023/01/12 08:34:37;;;;;;;0.45;0.20;;;;;;;24.80;31.47;99202.81;5033163;28;20086;-67
2023/01/12 08:37:05;;;;;;;0.30;0.30;;;;;;;24.85;31.72;99205.41;5014588;28;20098;-67
2023/01/12 08:39:34;;;;;;;0.35;0.30;;;;;;;24.84;31.25;99211.19;5012808;28;20032;-67
2023/01/12 08:41:59;;;;;;;0.32;0.30;;;;;;;24.88;31.00;99212.16;5028958;28;20029;-67
2023/01/12 08:44:31;;;;;;;0.22;0.22;;;;;;;24.86;31.13;99203.47;5033399;28;20067;-67
2023/01/12 08:46:57;;;;;;;0.25;0.25;;;;;;;24.89;31.72;99203.66;5031791;28;20386;-65
2023/01/12 08:49:24;;;;;;;0.20;0.20;;;;;;;24.93;31.61;99210.09;5031137;28;20029;-65
2023/01/12 08:51:50;;;;;;;0.22;0.22;;;;;;;24.87;31.04;99194.16;5030951;28;20025;-65
2023/01/12 08:54:16;;;;;;;0.20;0.20;;;;;;;24.93;31.66;99199.16;5031497;28;20021;-65
2023/01/12 08:56:42;;;;;;;0.20;0.20;;;;;;;24.89;31.53;99184.53;5033339;28;20111;-65
2023/01/12 08:59:08;;;;;;;0.30;0.30;;;;;;;24.98;31.48;99194.72;5030281;28;20083;-66
2023/01/12 09:01:33;;;;;;;0.20;0.20;;;;;;;24.93;31.71;99188.25;5031832;28;20136;-65
2023/01/12 09:03:59;;;;;;;0.30;0.30;;;;;;;24.98;31.69;99192.78;5036396;28;20480;-65
2023/01/12 09:06:27;;;;;;;0.30;0.30;;;;;;;24.94;31.25;99194.53;5039321;28;20025;-65
2023/01/12 09:08:57;;;;;;;0.20;0.20;;;;;;;24.97;31.29;99198.56;5040193;28;20021;-65
2023/01/12 09:11:23;;;;;;;0.20;0.20;;;;;;;24.96;31.38;99199.66;5039498;28;20048;-65
2023/01/12 09:13:49;;;;;;;0.52;0.30;;;;;;;25.04;31.38;99198.91;5038025;28;20072;-66
2023/01/12 09:16:15;;;;;;;0.20;0.20;;;;;;;25.02;31.14;99196.50;5040385;28;20055;-65
2023/01/12 09:18:41;;;;;;;0.30;0.30;;;;;;;25.01;31.46;99188.59;5039438;28;20017;-65
2023/01/12 09:21:08;;;;;;;0.20;0.20;;;;;;;25.01;31.67;99199.53;5036331;28;20117;-65
2023/01/12 09:23:34;;;;;;;0.30;0.25;;;;;;;25.09;31.48;99196.03;5039476;28;20025;-65
2023/01/12 09:26:07;;;;;;;0.20;0.20;;;;;;;25.03;31.79;99192.66;5037008;28;20033;-65
2023/01/12 09:28:33;;;;;;;0.30;0.30;;;;;;;25.09;31.77;99205.06;5037568;28;20072;-65
2023/01/12 09:31:09;;;;;;;0.30;0.30;;;;;;;25.09;31.46;99202.34;5035745;28;20502;-64
2023/01/12 09:33:36;;;;;;;0.28;0.22;;;;;;;25.12;31.51;99192.69;5039630;28;20025;-66
2023/01/12 09:36:12;;;;;;;0.20;0.20;;;;;;;25.17;31.61;99203.50;5036753;28;20044;-66
2023/01/12 09:38:38;;;;;;;0.25;0.20;;;;;;;25.16;31.33;99201.06;5037376;28;20060;-65
2023/01/12 09:47:37;;;;;;;0.30;0.30;;;;;;;25.22;31.71;99194.34;5040026;28;20056;-66
2023/01/12 09:50:26;;;;;;;0.22;0.22;;;;;;;25.21;31.21;99190.00;5038118;28;20078;-66
2023/01/12 09:53:05;;;;;;;0.30;0.30;;;;;;;25.23;31.54;99199.50;5037129;28;20025;-64
2023/01/12 09:55:43;;;;;;;0.20;0.20;;;;;;;25.21;31.37;99193.53;5038168;28;20480;-68
2023/01/12 09:58:27;;;;;;;0.30;0.30;;;;;;;25.22;31.32;99178.75;5037816;28;20025;-66
2023/01/12 10:00:55;;;;;;;0.25;0.22;;;;;;;25.18;31.29;99177.78;5036655;28;20499;-67
2023/01/12 10:03:29;;;;;;;0.20;0.20;;;;;;;25.24;31.77;99181.19;5038323;28;20033;-67
2023/01/12 10:05:57;;;;;;;0.30;0.30;;;;;;;25.24;31.53;99175.72;5038548;28;20032;-67
2023/01/12 10:08:41;;;;;;;0.20;0.20;;;;;;;25.26;31.06;99174.28;5036159;28;20032;-65
2023/01/12 10:11:13;;;;;;;0.30;0.30;;;;;;;25.28;31.41;99177.53;5036021;28;20021;-65
2023/01/12 10:13:59;;;;;;;0.30;0.30;;;;;;;25.26;31.29;99168.81;5036691;28;20024;-66
2023/01/12 10:16:46;;;;;;;0.30;0.30;;;;;;;25.30;31.22;99169.81;5036431;28;20024;-67
2023/01/12 10:19:18;;;;;;;0.32;0.30;;;;;;;25.27;31.51;99162.25;5037315;28;20299;-67
2023/01/12 10:21:43;;;;;;;0.20;0.20;;;;;;;25.20;31.39;99144.63;5039062;28;20107;-67
2023/01/12 10:24:12;;;;;;;0.30;0.25;;;;;;;25.30;31.22;99160.78;5021703;28;20104;-64
2023/01/12 10:26:41;;;;;;;0.30;0.30;;;;;;;25.31;31.24;99156.94;5037191;28;20029;-64
2023/01/12 10:29:06;;;;;;;0.30;0.30;;;;;;;25.34;31.22;99155.53;5038972;28;20057;-66
2023/01/12 10:31:32;;;;;;;0.30;0.30;;;;;;;25.30;31.27;99147.94;5018841;28;20018;-66
2023/01/12 10:34:08;;;;;;;0.25;0.25;;;;;;;25.25;31.35;99156.28;5036877;28;20041;-65
2023/01/12 10:36:35;;;;;;;0.25;0.25;;;;;;;25.33;31.75;99157.44;5036919;28;20016;-64
2023/01/12 10:39:02;;;;;;;0.30;0.30;;;;;;;25.35;31.25;99149.72;5032725;28;20021;-65
2023/01/12 10:41:32;;;;;;;0.25;0.20;;;;;;;25.38;31.63;99161.97;5033807;28;20036;-64
2023/01/12 10:43:58;;;;;;;0.22;0.22;;;;;;;25.42;31.66;99143.78;5038904;28;20159;-64
2023/01/12 10:46:28;;;;;;;0.20;0.20;;;;;;;25.43;31.59;99142.66;5037388;28;20029;-64
2023/01/12 10:49:13;;;;;;;0.20;0.20;;;;;;;25.42;31.51;99149.25;5037577;28;20412;-65
2023/01/12 10:51:48;;;;;;;0.65;0.38;;;;;;;25.45;31.62;99154.09;5019645;28;20021;-66
2023/01/12 10:54:18;;;;;;;0.20;0.20;;;;;;;25.43;31.51;99139.94;5038539;28;20021;-66
2023/01/12 10:57:02;;;;;;;0.28;0.28;;;;;;;25.46;31.37;99147.50;5018702;28;20476;-66
2023/01/12 10:59:34;;;;;;;;;;;;;;;25.56;31.23;99133.53;5037202;28;20569;-63
2023/01/12 11:02:12;;;;;;;0.30;0.30;;;;;;;25.50;31.41;99140.28;5034253;28;19916;-65
2023/01/12 11:04:45;;;;;;;0.30;0.30;;;;;;;25.47;31.61;99132.69;5036458;28;20033;-67
2023/01/12 11:07:14;;;;;;;0.30;0.30;;;;;;;25.48;31.02;99120.66;5038093;28;20544;-66
2023/01/12 11:09:41;;;;;;;0.65;0.30;;;;;;;25.48;31.24;99126.91;5037385;28;20037;-65
2023/01/12 11:12:24;;;;;;;0.30;0.30;;;;;;;25.52;31.41;99132.56;5036835;28;20028;-65
2023/01/12 11:15:17;;;;;;;0.52;0.40;;;;;;;25.53;31.38;99128.72;5019556;28;20028;-66
2023/01/12 11:18:13;;;;;;;0.20;0.20;;;;;;;25.54;30.69;99124.03;5023811;28;20359;-64
2023/01/12 11:20:50;;;;;;;0.30;0.30;;;;;;;25.50;31.41;99121.13;5036102;28;20029;-65
2023/01/12 11:23:40;;;;;;;0.25;0.25;;;;;;;25.54;31.20;99124.81;5037133;28;20375;-65
2023/01/12 11:26:19;;;;;;;0.28;0.28;;;;;;;25.54;31.54;99122.09;5037506;28;20040;-65
2023/01/12 11:28:54;;;;;;;0.30;0.30;;;;;;;25.58;31.40;99120.34;5017349;28;20037;-64
2023/01/12 11:31:24;;;;;;;0.20;0.20;;;;;;;25.60;31.49;99115.34;5035866;28;20032;-64
2023/01/12 11:34:13;;;;;;;0.50;0.30;;;;;;;25.65;31.11;99115.22;5033967;28;20036;-65
2023/01/12 11:36:41;;;;;;;0.20;0.20;;;;;;;25.56;31.47;99103.47;5034694;28;20026;-65
2023/01/12 11:39:18;;;;;;;0.30;0.30;;;;;;;25.56;31.24;99105.38;5035236;28;20162;-65
2023/01/12 11:44:57;;;;;;;0.30;0.30;;;;;;;25.70;31.01;99105.22;5032852;28;20094;-65
2023/01/12 11:47:38;;;;;;;0.30;0.30;;;;;;;25.65;30.87;99098.78;5038759;28;20201;-64
2023/01/12 11:50:23;;;;;;;0.40;0.30;;;;;;;25.62;31.39;99095.91;5036590;28;20552;-64
2023/01/12 11:52:49;;;;;;;0.40;0.30;;;;;;;25.63;31.41;99090.09;5038876;28;20036;-63
2023/01/12 11:55:18;;;;;;;0.32;0.30;;;;;;;25.64;31.53;99091.69;5034782;28;20562;-68
2023/01/12 11:57:57;;;;;;;0.25;0.25;;;;;;;25.64;31.34;99097.16;5038431;28;20063;-66
2023/01/12 12:00:40;;;;;;;0.30;0.30;;;;;;;25.66;31.29;99103.16;5036013;28;20061;-66
2023/01/12 12:03:43;;;;;;;0.30;0.30;;;;;;;25.70;31.61;99105.22;5038116;28;20361;-65
2023/01/12 12:06:46;;;;;;;0.38;0.38;;;;;;;25.68;31.42;99105.53;5040939;28;20675;-67
2023/01/12 12:09:14;;;;;;;0.30;0.30;;;;;;;25.71;31.46;99112.31;5038826;28;20393;-67
2023/01/12 12:11:52;;;;;;;0.47;0.45;;;;;;;25.72;31.33;99108.47;5042122;28;20021;-66
2023/01/12 12:14:53;;;;;;;0.70;0.40;;;;;;;25.75;31.19;99114.09;5040222;28;21124;-66
2023/01/12 12:17:50;;;;;;;0.20;0.20;;;;;;;25.75;31.26;99103.16;5038315;28;20028;-67
2023/01/12 12:20:18;;;;;;;0.30;0.30;;;;;;;25.78;31.10;99101.69;5039039;28;20040;-67
2023/01/12 12:22:43;;;;;;;0.30;0.30;;;;;;;25.77;31.11;99100.09;5037875;28;20032;-66
2023/01/12 12:25:15;;;;;;;0.30;0.30;;;;;;;25.78;31.12;99101.69;5039273;28;20513;-66
2023/01/12 12:28:03;;;;;;;0.22;0.22;;;;;;;25.77;30.95;99105.59;5040321;28;20518;-67